Time;durP1;ratioP1;P1;durP2;ratioP2;P2;SDS_P1;SDS_P2;PMS_P1;PMS_P2;Temp;Humidity;BMP_temperature;BMP_pressure;BME280_temperature;BME280_humidity;BME280_pressure;Samples;Min_cycle;Max_cycle;Signal;HPM_P1;HPM_P2
2024/01/16 00:00:50;;;;;;;82.67;59.97;;;2.80;99.90;;;;;;6183673;23;20005;-80
2024/01/16 00:03:16;;;;;;;76.75;59.10;;;2.80;99.90;;;;;;6183629;23;20009;-80
2024/01/16 00:05:42;;;;;;;82.68;59.33;;;2.80;99.90;;;;;;6183539;23;20007;-80
2024/01/16 00:08:07;;;;;;;83.75;59.22;;;2.80;99.90;;;;;;6183680;23;20052;-80
2024/01/16 00:10:33;;;;;;;76.23;57.27;;;2.80;99.90;;;;;;6157063;23;20001;-80
2024/01/16 00:12:58;;;;;;;78.80;59.63;;;2.80;99.90;;;;;;6183678;23;20337;-80
2024/01/16 00:15:24;;;;;;;77.32;57.25;;;2.80;99.90;;;;;;6157219;23;20345;-80
2024/01/16 00:17:51;;;;;;;81.27;59.47;;;2.70;99.90;;;;;;6183159;23;20040;-80
2024/01/16 00:20:16;;;;;;;77.45;58.35;;;2.70;99.90;;;;;;6157123;23;20039;-80
2024/01/16 00:22:42;;;;;;;80.83;58.03;;;2.70;99.90;;;;;;6183372;23;20004;-80
2024/01/16 00:25:08;;;;;;;77.50;58.25;;;2.70;99.90;;;;;;6183737;23;19997;-80
2024/01/16 00:27:34;;;;;;;79.82;57.13;;;2.70;99.90;;;;;;6183334;23;20059;-81
2024/01/16 00:29:59;;;;;;;81.43;59.50;;;2.70;99.90;;;;;;6183658;23;20338;-80
2024/01/16 00:32:25;;;;;;;77.70;57.60;;;2.80;99.90;;;;;;6156976;23;20005;-80
2024/01/16 00:34:51;;;;;;;79.83;59.13;;;2.70;99.90;;;;;;6157387;23;20012;-80
2024/01/16 00:37:16;;;;;;;78.93;57.00;;;2.70;99.90;;;;;;6183425;23;20337;-80
2024/01/16 00:39:42;;;;;;;75.95;55.55;;;2.80;99.90;;;;;;6183269;23;20396;-80
2024/01/16 00:42:08;;;;;;;75.47;55.03;;;2.80;99.90;;;;;;6183372;23;20008;-80
2024/01/16 00:44:34;;;;;;;76.03;55.40;;;2.80;99.90;;;;;;6183412;23;20426;-80
2024/01/16 00:47:01;;;;;;;72.77;54.70;;;2.80;99.90;;;;;;6157021;23;20005;-80
2024/01/16 00:49:28;;;;;;;68.97;53.05;;;2.90;99.90;;;;;;6183209;23;20039;-80
2024/01/16 00:51:54;;;;;;;73.53;55.15;;;2.90;99.90;;;;;;6183175;23;20012;-80
2024/01/16 00:54:20;;;;;;;74.68;53.85;;;2.90;99.90;;;;;;6183293;23;20012;-80
2024/01/16 00:56:46;;;;;;;69.13;52.67;;;2.90;99.90;;;;;;6183527;23;20001;-80
2024/01/16 00:59:12;;;;;;;72.27;53.37;;;2.90;99.90;;;;;;6183241;23;20011;-80
2024/01/16 01:01:38;;;;;;;68.87;51.43;;;2.90;99.90;;;;;;6183583;23;20441;-80
2024/01/16 01:04:04;;;;;;;67.30;51.33;;;2.90;99.90;;;;;;6183397;23;20080;-80
2024/01/16 01:06:29;;;;;;;63.45;48.95;;;2.90;99.90;;;;;;6156986;23;20485;-80
2024/01/16 01:08:55;;;;;;;67.93;48.67;;;2.80;99.90;;;;;;6183394;23;20036;-80
2024/01/16 01:11:21;;;;;;;66.30;50.85;;;2.90;99.90;;;;;;6156891;23;20456;-80
2024/01/16 01:13:46;;;;;;;70.60;51.63;;;2.90;99.90;;;;;;6156773;23;20001;-80
2024/01/16 01:16:12;;;;;;;71.50;52.58;;;2.80;99.90;;;;;;6183391;23;20005;-80
2024/01/16 01:18:38;;;;;;;66.73;49.90;;;2.90;99.90;;;;;;6183315;23;20005;-80
2024/01/16 01:21:03;;;;;;;67.35;49.88;;;2.90;99.90;;;;;;6156827;23;20083;-80
2024/01/16 01:23:29;;;;;;;65.30;47.53;;;2.80;99.90;;;;;;6183488;23;20001;-80
2024/01/16 01:25:55;;;;;;;67.70;49.07;;;2.80;99.90;;;;;;6157244;23;20009;-80
2024/01/16 01:28:20;;;;;;;64.93;49.47;;;2.80;99.90;;;;;;6183018;23;20331;-80
2024/01/16 01:30:46;;;;;;;66.03;49.33;;;2.90;99.90;;;;;;6158241;23;20012;-80
2024/01/16 01:33:12;;;;;;;69.30;49.63;;;2.90;99.90;;;;;;6158523;23;20019;-80
2024/01/16 01:35:37;;;;;;;65.90;48.60;;;2.90;99.90;;;;;;6185300;23;20032;-80
2024/01/16 01:38:03;;;;;;;63.30;46.22;;;2.80;99.90;;;;;;6184855;23;20012;-80
2024/01/16 01:40:29;;;;;;;61.80;45.73;;;2.90;99.90;;;;;;6185107;23;20025;-80
2024/01/16 01:42:55;;;;;;;64.90;46.70;;;2.90;99.90;;;;;;6184967;23;20333;-80
2024/01/16 01:45:21;;;;;;;61.10;44.83;;;2.80;99.90;;;;;;6184734;23;19997;-80
2024/01/16 01:47:47;;;;;;;59.10;43.45;;;2.90;99.90;;;;;;6185070;23;20005;-80
2024/01/16 01:50:13;;;;;;;58.17;43.57;;;2.80;99.90;;;;;;6184812;23;20345;-80
2024/01/16 01:52:40;;;;;;;58.20;43.30;;;2.90;99.90;;;;;;6158623;23;20033;-80
2024/01/16 01:55:11;;;;;;;61.17;43.33;;;3.00;99.90;;;;;;6158381;23;20012;-78
2024/01/16 01:57:38;;;;;;;57.20;43.05;;;3.10;99.90;;;;;;6184650;23;20006;-80
2024/01/16 02:00:04;;;;;;;55.65;40.30;;;3.10;99.90;;;;;;6158157;23;20009;-80
2024/01/16 02:02:32;;;;;;;56.35;40.10;;;3.10;99.90;;;;;;6158456;23;20013;-80
2024/01/16 02:04:58;;;;;;;54.22;39.22;;;3.10;99.90;;;;;;6158375;23;20001;-80
2024/01/16 02:07:24;;;;;;;54.58;39.55;;;3.00;99.90;;;;;;6184778;23;20008;-80
2024/01/16 02:09:50;;;;;;;53.28;39.97;;;3.00;99.90;;;;;;6184822;23;20011;-80
2024/01/16 02:12:16;;;;;;;52.88;40.05;;;3.00;99.90;;;;;;6158201;23;20441;-80
2024/01/16 02:14:41;;;;;;;52.90;37.20;;;3.00;99.90;;;;;;6158254;23;20013;-79
2024/01/16 02:17:07;;;;;;;52.20;38.22;;;3.00;99.90;;;;;;6158237;23;20433;-80
2024/01/16 02:19:33;;;;;;;49.63;36.70;;;3.00;99.90;;;;;;6158266;23;20008;-80
2024/01/16 02:22:07;;;;;;;46.22;34.55;;;3.00;99.90;;;;;;6184817;23;20001;-80
2024/01/16 02:24:33;;;;;;;49.25;34.53;;;3.00;99.90;;;;;;6184676;23;20000;-80
2024/01/16 02:26:59;;;;;;;46.45;34.70;;;3.00;99.90;;;;;;6158155;23;20340;-80
2024/01/16 02:29:25;;;;;;;46.60;33.92;;;3.00;99.90;;;;;;6184438;23;20084;-80
2024/01/16 02:31:51;;;;;;;43.63;33.38;;;3.00;99.90;;;;;;6184642;23;20039;-80
2024/01/16 02:34:16;;;;;;;42.63;33.30;;;3.00;99.90;;;;;;6184341;23;20500;-80
2024/01/16 02:36:42;;;;;;;45.65;33.10;;;3.00;99.90;;;;;;6158118;23;20012;-80
2024/01/16 02:39:08;;;;;;;42.05;31.02;;;3.00;99.90;;;;;;6184347;23;20005;-80
2024/01/16 02:41:33;;;;;;;41.00;31.10;;;3.00;99.90;;;;;;6183683;23;20120;-80
2024/01/16 02:43:59;;;;;;;38.13;30.17;;;3.00;99.90;;;;;;6184346;23;20444;-80
2024/01/16 02:46:25;;;;;;;40.83;30.35;;;3.00;99.90;;;;;;6184277;23;20051;-80
2024/01/16 02:48:50;;;;;;;42.60;29.97;;;3.00;99.90;;;;;;6184436;23;20001;-80
2024/01/16 02:51:16;;;;;;;39.50;29.45;;;3.00;99.90;;;;;;6157846;23;20001;-80
2024/01/16 02:53:42;;;;;;;34.80;27.93;;;3.00;99.90;;;;;;6184499;23;20001;-80
2024/01/16 02:56:08;;;;;;;37.65;28.35;;;3.00;99.30;;;;;;6157821;23;20001;-80
2024/01/16 02:58:34;;;;;;;36.60;27.52;;;3.00;99.80;;;;;;6157687;23;20096;-80
2024/01/16 03:01:00;;;;;;;37.15;28.50;;;3.00;99.70;;;;;;6184129;23;20355;-80
2024/01/16 03:03:27;;;;;;;36.47;26.70;;;3.00;99.90;;;;;;6184097;23;20007;-80
2024/01/16 03:05:52;;;;;;;35.42;26.42;;;3.00;99.50;;;;;;6157842;23;20005;-80
2024/01/16 03:08:18;;;;;;;30.87;25.33;;;3.00;97.80;;;;;;6157592;23;20009;-80
2024/01/16 03:10:44;;;;;;;35.35;26.15;;;3.00;97.90;;;;;;6157829;23;20012;-80
2024/01/16 03:13:10;;;;;;;32.80;25.27;;;3.10;97.50;;;;;;6157690;23;20005;-80
2024/01/16 03:15:36;;;;;;;35.30;24.87;;;3.00;98.50;;;;;;6184204;23;20140;-80
2024/01/16 03:18:01;;;;;;;34.00;23.80;;;3.00;97.70;;;;;;6157562;23;20329;-80
2024/01/16 03:20:28;;;;;;;29.10;23.30;;;3.00;97.20;;;;;;6157506;23;20001;-80
2024/01/16 03:22:54;;;;;;;31.02;23.50;;;3.00;97.50;;;;;;6184235;23;20005;-80
2024/01/16 03:25:21;;;;;;;27.10;22.83;;;3.00;97.60;;;;;;6183885;23;19997;-80
2024/01/16 03:27:47;;;;;;;29.80;22.93;;;3.00;97.10;;;;;;6157458;23;20464;-80
2024/01/16 03:30:13;;;;;;;31.80;22.85;;;3.00;97.00;;;;;;6157467;23;20298;-80
2024/01/16 03:32:38;;;;;;;30.83;23.40;;;3.00;95.50;;;;;;6184102;23;20035;-80
2024/01/16 03:35:07;;;;;;;29.10;22.15;;;3.00;95.40;;;;;;6183885;23;20016;-79
2024/01/16 03:37:34;;;;;;;26.87;22.40;;;3.00;94.70;;;;;;6183881;23;20016;-80
2024/01/16 03:40:00;;;;;;;27.90;21.57;;;3.00;94.30;;;;;;6183732;23;20001;-80
2024/01/16 03:42:26;;;;;;;27.50;20.30;;;3.00;93.40;;;;;;6157303;23;19997;-80
2024/01/16 03:44:52;;;;;;;28.15;21.65;;;3.00;94.20;;;;;;6183726;23;20001;-80
2024/01/16 03:47:18;;;;;;;28.90;21.73;;;3.00;92.40;;;;;;6183887;23;20027;-80
2024/01/16 03:49:43;;;;;;;27.40;20.17;;;3.00;92.30;;;;;;6183842;23;20005;-80
2024/01/16 03:52:09;;;;;;;25.07;19.60;;;3.10;90.80;;;;;;6183648;23;20330;-80
2024/01/16 03:54:35;;;;;;;27.77;20.53;;;3.10;91.30;;;;;;6183716;23;20010;-80
2024/01/16 03:57:01;;;;;;;23.25;19.45;;;3.10;90.50;;;;;;6183511;23;20001;-80
2024/01/16 03:59:26;;;;;;;26.70;20.52;;;3.10;85.20;;;;;;6183584;23;20016;-80
2024/01/16 04:01:52;;;;;;;34.15;21.65;;;3.10;83.50;;;;;;6157027;23;20112;-80
2024/01/16 04:04:18;;;;;;;24.80;19.27;;;3.10;82.80;;;;;;6183876;23;19997;-80
2024/01/16 04:06:44;;;;;;;27.10;20.08;;;3.00;81.40;;;;;;6157326;23;20009;-80
2024/01/16 04:09:09;;;;;;;24.75;18.48;;;3.00;85.60;;;;;;6183433;23;20008;-80
2024/01/16 04:11:36;;;;;;;26.17;19.03;;;3.00;84.80;;;;;;6183724;23;20011;-80
2024/01/16 04:14:02;;;;;;;19.83;17.53;;;3.00;86.10;;;;;;6183519;23;20549;-80
2024/01/16 04:16:28;;;;;;;24.77;18.98;;;3.00;87.90;;;;;;6157372;23;20013;-80
2024/01/16 04:18:53;;;;;;;22.77;18.70;;;3.00;90.70;;;;;;6183518;23;20332;-80
2024/01/16 04:21:19;;;;;;;22.27;17.63;;;3.00;89.20;;;;;;6157238;23;20005;-80
2024/01/16 04:23:45;;;;;;;23.75;18.58;;;3.00;88.60;;;;;;6182828;23;20055;-80
2024/01/16 04:26:10;;;;;;;20.40;17.17;;;2.90;88.90;;;;;;6183698;23;19998;-80
2024/01/16 04:28:39;;;;;;;19.90;17.77;;;2.90;90.20;;;;;;6183541;23;20012;-80
2024/01/16 04:31:05;;;;;;;21.40;17.40;;;2.90;91.10;;;;;;6183683;23;20006;-80
2024/01/16 04:33:31;;;;;;;21.33;16.73;;;2.80;91.70;;;;;;6157023;23;20036;-80
2024/01/16 04:35:57;;;;;;;23.52;18.08;;;2.80;91.40;;;;;;6183608;23;20036;-80
2024/01/16 04:38:23;;;;;;;21.20;16.43;;;2.80;91.00;;;;;;6153273;23;20345;-80
2024/01/16 04:40:49;;;;;;;26.20;18.35;;;2.80;91.40;;;;;;6156934;23;20005;-80
2024/01/16 04:43:15;;;;;;;20.10;16.50;;;2.80;90.10;;;;;;6183629;23;20004;-80
2024/01/16 04:45:41;;;;;;;20.37;17.53;;;2.80;90.00;;;;;;6156820;23;19997;-80
2024/01/16 04:48:08;;;;;;;21.30;17.23;;;2.80;90.70;;;;;;6182825;23;20036;-80
2024/01/16 04:50:37;;;;;;;20.53;17.03;;;2.70;87.40;;;;;;6156829;23;20354;-80
2024/01/16 04:53:03;;;;;;;20.25;16.63;;;2.70;87.20;;;;;;6183431;23;20012;-80
2024/01/16 04:55:29;;;;;;;23.53;17.90;;;2.70;90.00;;;;;;6183277;23;20499;-80
2024/01/16 04:57:56;;;;;;;19.48;16.08;;;2.70;87.50;;;;;;6156944;23;20009;-80
2024/01/16 05:00:22;;;;;;;20.33;17.38;;;2.70;87.70;;;;;;6183135;23;20001;-80
2024/01/16 05:02:48;;;;;;;19.85;16.95;;;2.70;88.00;;;;;;6183376;23;20552;-80
2024/01/16 05:05:14;;;;;;;19.60;15.60;;;2.80;87.30;;;;;;6157772;23;20079;-80
2024/01/16 05:07:40;;;;;;;20.47;15.90;;;2.70;81.60;;;;;;6185314;23;20334;-80
2024/01/16 05:10:07;;;;;;;19.10;16.27;;;2.70;83.50;;;;;;6185399;23;20005;-80
2024/01/16 05:12:32;;;;;;;18.98;15.60;;;2.70;81.50;;;;;;6158825;23;20035;-80
2024/01/16 05:14:58;;;;;;;20.30;16.17;;;2.70;81.70;;;;;;6184604;23;20445;-80
2024/01/16 05:17:24;;;;;;;22.42;16.50;;;2.70;78.00;;;;;;6185144;23;20210;-80
2024/01/16 05:19:50;;;;;;;18.05;15.60;;;2.70;74.70;;;;;;6158914;23;20016;-80
2024/01/16 05:22:15;;;;;;;19.33;16.37;;;2.70;77.00;;;;;;6185087;23;20414;-80
2024/01/16 05:24:41;;;;;;;19.20;16.43;;;2.60;75.70;;;;;;6158706;23;20001;-80
2024/01/16 05:27:07;;;;;;;21.50;16.33;;;2.60;80.50;;;;;;6184767;23;20005;-80
2024/01/16 05:29:33;;;;;;;18.97;15.87;;;2.50;83.00;;;;;;6158045;23;20012;-80
2024/01/16 05:31:58;;;;;;;18.73;15.50;;;2.50;83.30;;;;;;6184985;23;20020;-80
2024/01/16 05:34:24;;;;;;;16.77;15.00;;;2.60;77.00;;;;;;6185086;23;20028;-80
2024/01/16 05:36:50;;;;;;;19.50;14.53;;;2.60;68.50;;;;;;6157739;23;20012;-80
2024/01/16 05:39:17;;;;;;;19.13;14.30;;;2.50;60.80;;;;;;6184790;23;20365;-80
2024/01/16 05:41:42;;;;;;;16.97;13.43;;;2.60;53.40;;;;;;6158017;23;20016;-80
2024/01/16 05:44:08;;;;;;;15.43;13.07;;;2.60;49.20;;;;;;6158460;23;20233;-80
2024/01/16 05:46:34;;;;;;;15.33;13.63;;;2.60;47.70;;;;;;6185085;23;19997;-80
2024/01/16 05:48:59;;;;;;;15.10;12.77;;;2.50;48.40;;;;;;6158367;23;20330;-80
2024/01/16 05:51:28;;;;;;;14.20;12.63;;;2.50;50.70;;;;;;6184985;23;20422;-80
2024/01/16 05:53:54;;;;;;;14.00;12.40;;;2.50;44.40;;;;;;6158456;23;20101;-80
2024/01/16 05:56:19;;;;;;;14.97;12.50;;;2.50;37.70;;;;;;6158405;23;20329;-80
2024/01/16 05:58:45;;;;;;;13.00;11.30;;;2.50;40.40;;;;;;6158483;23;20040;-80
2024/01/16 06:01:13;;;;;;;12.33;11.00;;;2.50;30.60;;;;;;6184373;23;20084;-80
2024/01/16 06:03:39;;;;;;;15.97;12.10;;;2.50;23.20;;;;;;6185575;23;20345;-80
2024/01/16 06:06:05;;;;;;;13.60;11.13;;;2.40;26.50;;;;;;6184731;23;20001;-80
2024/01/16 06:08:31;;;;;;;12.20;10.67;;;2.50;22.60;;;;;;6158462;23;20016;-80
2024/01/16 06:10:57;;;;;;;10.07;9.07;;;2.40;14.50;;;;;;6158177;23;20009;-80
2024/01/16 06:13:22;;;;;;;10.73;9.60;;;2.40;5.50;;;;;;6158264;23;20481;-80
2024/01/16 06:15:51;;;;;;;10.00;9.07;;;2.50;1.00;;;;;;6184288;23;20016;-81
2024/01/16 06:18:17;;;;;;;12.17;9.10;;;2.50;1.00;;;;;;6157083;23;20417;-79
2024/01/16 06:20:42;;;;;;;12.00;9.27;;;2.50;1.00;;;;;;6184748;23;20085;-80
2024/01/16 06:23:08;;;;;;;9.53;8.63;;;2.50;1.00;;;;;;6184714;23;20382;-80
2024/01/16 06:25:34;;;;;;;8.67;7.80;;;2.50;1.00;;;;;;6184657;23;20004;-80
2024/01/16 06:28:10;;;;;;;9.87;8.87;;;2.50;1.00;;;;;;6158467;23;20013;-80
2024/01/16 06:30:37;;;;;;;11.33;8.60;;;2.50;1.00;;;;;;6158687;23;20005;-80
2024/01/16 06:33:05;;;;;;;8.67;7.07;;;2.50;1.00;;;;;;6158408;23;20016;-80
2024/01/16 06:35:30;;;;;;;8.40;7.50;;;2.50;1.00;;;;;;6159403;23;20084;-76
2024/01/16 06:37:56;;;;;;;7.90;7.10;;;2.50;1.00;;;;;;6158317;23;20395;-76
2024/01/16 06:40:22;;;;;;;7.77;6.97;;;2.50;1.00;;;;;;6184468;23;20007;-76
2024/01/16 06:42:48;;;;;;;7.77;6.70;;;2.50;1.00;;;;;;6183894;23;20497;-76
2024/01/16 06:45:15;;;;;;;7.07;6.37;;;2.50;1.00;;;;;;6184751;23;20035;-76
2024/01/16 06:47:41;;;;;;;9.40;6.53;;;2.50;1.00;;;;;;6157541;23;20009;-76
2024/01/16 06:50:07;;;;;;;8.17;6.53;;;2.50;1.00;;;;;;6184047;23;20012;-76
2024/01/16 06:52:34;;;;;;;6.43;5.83;;;2.50;1.00;;;;;;6184529;23;20009;-76
2024/01/16 06:54:59;;;;;;;9.50;6.40;;;2.50;1.00;;;;;;6157738;23;20008;-76
2024/01/16 06:57:25;;;;;;;7.97;5.80;;;2.50;1.00;;;;;;6183975;23;20001;-77
2024/01/16 06:59:51;;;;;;;7.07;6.00;;;2.40;1.00;;;;;;6184040;23;20001;-76
2024/01/16 07:02:16;;;;;;;7.13;5.83;;;2.40;1.00;;;;;;6183889;23;20045;-76
2024/01/16 07:04:42;;;;;;;6.97;5.80;;;2.50;1.00;;;;;;6184429;23;20021;-76
2024/01/16 07:07:08;;;;;;;6.20;5.63;;;2.50;1.00;;;;;;6183723;23;20005;-76
2024/01/16 07:09:33;;;;;;;7.87;5.87;;;2.50;1.00;;;;;;6184188;23;20009;-76
2024/01/16 07:11:59;;;;;;;9.73;7.03;;;2.50;1.00;;;;;;6157491;23;20457;-76
2024/01/16 07:14:25;;;;;;;8.47;7.60;;;2.50;99.90;;;;;;6184294;23;20001;-76
2024/01/16 07:16:51;;;;;;;8.77;6.77;;;2.50;99.90;;;;;;6183789;23;20385;-76
2024/01/16 07:19:16;;;;;;;9.10;7.60;;;2.50;1.00;;;;;;6184296;23;20068;-76
2024/01/16 07:21:42;;;;;;;9.70;7.73;;;2.50;1.00;;;;;;6184243;23;20329;-76
2024/01/16 07:24:08;;;;;;;6.07;5.47;;;2.50;99.90;;;;;;6183958;23;20051;-76
2024/01/16 07:26:34;;;;;;;6.03;5.43;;;2.60;99.90;;;;;;6157652;23;20001;-76
2024/01/16 07:28:59;;;;;;;8.00;5.47;;;2.60;99.90;;;;;;6183570;23;20069;-76
2024/01/16 07:31:26;;;;;;;5.80;5.30;;;2.70;99.90;;;;;;6183764;23;20093;-76
2024/01/16 07:33:52;;;;;;;6.77;5.63;;;2.70;99.90;;;;;;6183902;23;20338;-76
2024/01/16 07:36:17;;;;;;;7.63;5.53;;;2.70;99.90;;;;;;6184112;23;19997;-76
2024/01/16 07:38:43;;;;;;;9.77;5.37;;;2.70;99.90;;;;;;6157339;23;20009;-76
2024/01/16 07:41:09;;;;;;;6.23;5.17;;;2.70;99.90;;;;;;6183838;23;19998;-76
2024/01/16 07:43:35;;;;;;;4.90;4.50;;;2.70;99.90;;;;;;6184022;23;20372;-76
2024/01/16 07:46:01;;;;;;;8.03;5.13;;;2.70;99.90;;;;;;6157267;23;20508;-76
2024/01/16 07:48:27;;;;;;;5.05;4.55;;;2.80;99.90;;;;;;6183738;23;20008;-76
2024/01/16 07:50:53;;;;;;;6.28;4.72;;;2.80;99.90;;;;;;6183730;23;20432;-76
2024/01/16 07:53:18;;;;;;;8.57;4.97;;;2.90;99.90;;;;;;6184122;23;20076;-76
2024/01/16 07:55:44;;;;;;;5.07;4.57;;;2.90;99.90;;;;;;6157414;23;20384;-76
2024/01/16 07:58:13;;;;;;;5.60;4.30;;;2.90;99.90;;;;;;6183424;23;20076;-76
2024/01/16 08:00:39;;;;;;;6.55;4.97;;;3.00;99.90;;;;;;6183595;23;20022;-76
2024/01/16 08:03:08;;;;;;;6.75;4.35;;;3.10;99.90;;;;;;6183716;23;20001;-76
2024/01/16 08:05:37;;;;;;;7.87;4.80;;;3.10;99.90;;;;;;6183621;23;20001;-76
2024/01/16 08:08:04;;;;;;;6.93;4.83;;;3.10;99.90;;;;;;6183701;23;20080;-76
2024/01/16 08:10:30;;;;;;;7.35;4.70;;;3.20;99.90;;;;;;6157205;23;20005;-76
2024/01/16 08:12:55;;;;;;;5.80;4.38;;;3.20;99.90;;;;;;6157126;23;20009;-76
2024/01/16 08:15:21;;;;;;;9.30;5.07;;;3.20;99.90;;;;;;6157154;23;20020;-76
2024/01/16 08:17:47;;;;;;;8.13;4.78;;;3.20;99.90;;;;;;6183569;23;20070;-76
2024/01/16 08:20:13;;;;;;;7.90;6.03;;;3.20;99.90;;;;;;6157053;23;20012;-76
2024/01/16 08:22:39;;;;;;;7.55;5.32;;;3.30;99.90;;;;;;6157399;23;20005;-76
2024/01/16 08:25:05;;;;;;;7.95;6.10;;;3.30;99.90;;;;;;6183705;23;20004;-76
2024/01/16 08:27:31;;;;;;;51.72;10.10;;;3.40;99.90;;;;;;6182972;23;20066;-76
2024/01/16 08:29:57;;;;;;;14.25;6.90;;;3.40;99.90;;;;;;6183674;23;20011;-76
2024/01/16 08:32:22;;;;;;;8.80;6.78;;;3.50;99.90;;;;;;6183155;23;20079;-76
2024/01/16 08:34:48;;;;;;;9.38;7.20;;;3.50;99.90;;;;;;6183629;23;19998;-76
2024/01/16 08:37:14;;;;;;;6.95;6.25;;;3.60;99.90;;;;;;6183236;23;20033;-76
2024/01/16 08:39:40;;;;;;;9.65;7.10;;;3.60;99.90;;;;;;6184112;23;20433;-76
2024/01/16 08:42:05;;;;;;;9.02;7.13;;;3.60;99.90;;;;;;6158854;23;20005;-76
2024/01/16 08:44:31;;;;;;;9.65;7.68;;;3.60;99.90;;;;;;6158960;23;20005;-76
2024/01/16 08:46:59;;;;;;;15.10;8.88;;;3.60;99.90;;;;;;6185527;23;20457;-76
2024/01/16 08:49:25;;;;;;;10.55;8.50;;;3.70;99.90;;;;;;6185506;23;20426;-76
2024/01/16 08:51:50;;;;;;;9.85;7.55;;;3.70;99.90;;;;;;6185742;23;20001;-76
2024/01/16 08:54:16;;;;;;;8.48;6.65;;;3.70;99.90;;;;;;6159053;23;20009;-76
2024/01/16 08:56:41;;;;;;;8.43;6.57;;;3.70;99.90;;;;;;6158963;23;20338;-76
2024/01/16 08:59:08;;;;;;;7.40;6.65;;;3.80;99.90;;;;;;6185280;23;20001;-76
2024/01/16 09:01:33;;;;;;;9.75;7.38;;;3.80;99.90;;;;;;6185274;23;20048;-76
2024/01/16 09:03:59;;;;;;;12.63;7.65;;;3.80;99.90;;;;;;6185521;23;20001;-76
2024/01/16 09:06:25;;;;;;;11.38;8.05;;;3.90;99.90;;;;;;6185216;23;19997;-76
2024/01/16 09:08:51;;;;;;;11.48;8.55;;;3.90;99.90;;;;;;6158942;23;20012;-76
2024/01/16 09:11:16;;;;;;;12.95;9.13;;;3.90;1.00;;;;;;6158696;23;20016;-76
2024/01/16 09:13:43;;;;;;;14.52;9.23;;;3.90;1.00;;;;;;6185330;23;20074;-76
2024/01/16 09:16:09;;;;;;;28.67;9.45;;;3.90;1.00;;;;;;6185142;23;20021;-76
2024/01/16 09:18:34;;;;;;;18.13;10.45;;;3.90;1.00;;;;;;6185048;23;20086;-76
2024/01/16 09:21:00;;;;;;;24.90;10.70;;;3.90;1.00;;;;;;6185251;23;19997;-76
2024/01/16 09:23:26;;;;;;;17.77;10.60;;;3.90;1.00;;;;;;6185184;23;20216;-76
2024/01/16 09:25:51;;;;;;;20.35;10.82;;;4.00;1.00;;;;;;6185053;23;19997;-76
2024/01/16 09:28:18;;;;;;;18.73;10.45;;;4.00;1.00;;;;;;6184776;23;20465;-76
2024/01/16 09:30:44;;;;;;;17.95;11.05;;;4.10;99.90;;;;;;6158777;23;20485;-76
2024/01/16 09:33:10;;;;;;;20.58;13.23;;;4.20;99.90;;;;;;6184984;23;20284;-76
2024/01/16 09:35:36;;;;;;;24.75;12.55;;;4.30;1.00;;;;;;6158652;23;20031;-76
2024/01/16 09:38:04;;;;;;;32.10;13.60;;;4.30;99.90;;;;;;6184760;23;20009;-76
2024/01/16 09:40:30;;;;;;;20.80;13.38;;;4.40;99.90;;;;;;6158751;23;20051;-76
2024/01/16 09:42:56;;;;;;;23.00;15.95;;;4.50;1.00;;;;;;6158223;23;20009;-76
2024/01/16 09:45:24;;;;;;;25.00;16.92;;;4.60;1.00;;;;;;6185144;23;20023;-76
2024/01/16 09:47:52;;;;;;;19.02;16.17;;;4.60;1.00;;;;;;6184813;23;20001;-76
2024/01/16 09:50:19;;;;;;;24.40;16.65;;;4.60;1.00;;;;;;6184866;23;20377;-76
2024/01/16 09:52:48;;;;;;;21.73;16.05;;;4.70;1.00;;;;;;6184667;23;20326;-76
2024/01/16 09:55:14;;;;;;;26.88;16.48;;;4.80;1.00;;;;;;6184941;23;20001;-76
2024/01/16 09:57:41;;;;;;;21.10;16.25;;;4.80;1.00;;;;;;6158350;23;20410;-76
2024/01/16 10:00:14;;;;;;;25.48;16.30;;;4.80;1.00;;;;;;6184916;23;20039;-76
2024/01/16 10:02:40;;;;;;;21.80;15.50;;;4.90;1.00;;;;;;6158261;23;20020;-76
2024/01/16 10:05:15;;;;;;;21.85;16.30;;;4.90;1.00;;;;;;6184608;23;20012;-76
2024/01/16 10:07:45;;;;;;;25.90;18.23;;;4.90;1.00;;;;;;6158205;23;20097;-76
2024/01/16 10:10:11;;;;;;;24.35;17.60;;;5.00;1.00;;;;;;6158403;23;20005;-76
2024/01/16 10:12:41;;;;;;;22.13;18.00;;;5.00;1.00;;;;;;6184344;23;20068;-76
2024/01/16 10:15:07;;;;;;;27.77;19.73;;;5.10;1.00;;;;;;6158250;23;20426;-76
2024/01/16 10:17:41;;;;;;;37.63;21.05;;;5.20;1.00;;;;;;6158293;23;20009;-76
2024/01/16 10:20:12;;;;;;;31.15;19.98;;;5.30;1.00;;;;;;6158299;23;20051;-76
2024/01/16 10:22:39;;;;;;;23.48;18.23;;;5.40;1.00;;;;;;6157987;23;20448;-76
2024/01/16 10:25:16;;;;;;;23.08;17.27;;;5.50;1.00;;;;;;6184877;23;20008;-76
2024/01/16 10:27:42;;;;;;;26.80;19.35;;;5.60;1.00;;;;;;6184391;23;19998;-76
2024/01/16 10:30:10;;;;;;;26.75;19.10;;;5.70;1.00;;;;;;6158265;23;20059;-76
2024/01/16 10:32:37;;;;;;;26.35;19.90;;;5.70;1.00;;;;;;6184442;23;20005;-76
2024/01/16 10:35:06;;;;;;;29.65;19.00;;;5.70;1.00;;;;;;6157693;23;20452;-76
2024/01/16 10:37:44;;;;;;;29.85;19.83;;;5.70;1.00;;;;;;6184335;23;20001;-76
2024/01/16 10:40:14;;;;;;;29.38;19.52;;;5.70;1.00;;;;;;6184457;23;20308;-76
2024/01/16 10:42:39;;;;;;;24.73;18.05;;;5.70;1.00;;;;;;6184258;23;20051;-76
2024/01/16 10:45:06;;;;;;;28.77;19.17;;;5.80;1.00;;;;;;6157757;23;20088;-76
2024/01/16 10:47:36;;;;;;;29.58;19.63;;;5.80;1.00;;;;;;6184297;23;20005;-76
2024/01/16 10:50:04;;;;;;;26.70;18.98;;;5.90;1.00;;;;;;6158226;23;20009;-76
2024/01/16 10:52:34;;;;;;;26.52;18.58;;;5.80;1.00;;;;;;6157744;23;20005;-76
2024/01/16 10:55:04;;;;;;;25.50;18.38;;;5.90;1.00;;;;;;6158110;23;20025;-76
2024/01/16 10:57:37;;;;;;;25.55;18.00;;;5.90;1.00;;;;;;6157369;23;20390;-76
2024/01/16 11:00:05;;;;;;;25.80;17.70;;;5.90;1.00;;;;;;6184443;23;20008;-76
2024/01/16 11:03:04;;;;;;;25.45;17.67;;;6.00;1.00;;;;;;6157191;23;20009;-76
2024/01/16 11:05:33;;;;;;;26.90;17.92;;;6.00;1.00;;;;;;6157887;23;20314;-76
2024/01/16 11:08:01;;;;;;;31.35;19.27;;;5.90;1.00;;;;;;6183984;23;20190;-76
2024/01/16 11:10:27;;;;;;;27.23;18.05;;;5.90;1.00;;;;;;6184179;23;20005;-76
2024/01/16 11:12:55;;;;;;;27.40;19.65;;;6.00;1.00;;;;;;6183802;23;20005;-76
2024/01/16 11:15:21;;;;;;;25.67;17.73;;;6.00;1.00;;;;;;6184261;23;20048;-76
2024/01/16 11:17:49;;;;;;;27.90;17.52;;;6.00;1.00;;;;;;6157219;23;20052;-76
2024/01/16 11:20:16;;;;;;;24.08;18.48;;;6.10;1.00;;;;;;6157759;23;20096;-76
2024/01/16 11:22:46;;;;;;;26.20;18.35;;;6.20;1.00;;;;;;6157659;23;20333;-76
2024/01/16 11:25:14;;;;;;;27.08;18.63;;;6.30;1.00;;;;;;6183997;23;20047;-76
2024/01/16 11:27:41;;;;;;;29.75;19.13;;;6.40;1.00;;;;;;6183861;23;20001;-76
2024/01/16 11:30:09;;;;;;;24.77;17.90;;;6.50;1.00;;;;;;6183902;23;20044;-76
2024/01/16 11:32:40;;;;;;;27.60;17.80;;;6.60;1.00;;;;;;6157543;23;20015;-76
2024/01/16 11:35:09;;;;;;;25.00;17.47;;;6.70;1.00;;;;;;6157663;23;20005;-76
2024/01/16 11:37:37;;;;;;;26.02;18.30;;;6.80;99.90;;;;;;6183629;23;20177;-76
2024/01/16 11:40:32;;;;;;;25.65;17.58;;;6.90;99.90;;;;;;6184725;23;20083;-76
2024/01/16 11:42:57;;;;;;;21.42;15.25;;;7.10;99.90;;;;;;6181026;23;20001;-76
2024/01/16 11:45:30;;;;;;;20.70;14.45;;;7.10;99.90;;;;;;6158628;23;20009;-76
2024/01/16 11:48:11;;;;;;;;;;;7.20;99.90;;;;;;6185292;23;20429;-76
2024/01/16 11:50:37;;;;;;;22.13;13.63;;;7.10;99.90;;;;;;6158807;23;19938;-76
2024/01/16 11:53:03;;;;;;;21.15;12.13;;;7.20;99.90;;;;;;6184980;23;20360;-77
2024/01/16 11:55:43;;;;;;;17.08;12.32;;;7.20;1.00;;;;;;6158942;23;20083;-76
2024/01/16 11:58:33;;;;;;;18.73;12.52;;;7.30;1.00;;;;;;6183248;23;20082;-76
2024/01/16 12:00:59;;;;;;;17.17;12.48;;;7.40;66.90;;;;;;6157709;23;20342;-76
2024/01/16 12:03:25;;;;;;;20.70;12.27;;;7.50;1.00;;;;;;6184163;23;19997;-76
2024/01/16 12:06:01;;;;;;;19.65;13.25;;;7.50;1.00;;;;;;6184238;23;20032;-76
2024/01/16 12:08:28;;;;;;;23.20;13.35;;;7.60;99.90;;;;;;6158491;23;20059;-76
2024/01/16 12:10:54;;;;;;;19.50;13.57;;;7.60;99.90;;;;;;6158828;23;20448;-76
2024/01/16 12:13:19;;;;;;;15.25;12.27;;;7.60;99.90;;;;;;6185014;23;19997;-76
2024/01/16 12:15:46;;;;;;;18.58;13.73;;;7.70;99.90;;;;;;6185183;23;20545;-76
2024/01/16 12:18:18;;;;;;;18.30;13.55;;;7.70;99.90;;;;;;6158410;23;20052;-76
2024/01/16 12:20:44;;;;;;;23.13;13.75;;;7.70;99.90;;;;;;6184434;23;20076;-77
2024/01/16 12:23:10;;;;;;;15.90;12.77;;;7.80;99.90;;;;;;6183875;23;20020;-77
2024/01/16 12:25:39;;;;;;;17.55;11.70;;;7.80;99.90;;;;;;6184947;23;19997;-76
2024/01/16 12:28:06;;;;;;;17.52;11.52;;;7.80;99.90;;;;;;6184863;23;20005;-76
2024/01/16 12:30:33;;;;;;;18.05;11.52;;;7.90;99.90;;;;;;6185138;23;19997;-77
2024/01/16 12:33:06;;;;;;;14.05;10.88;;;7.90;99.90;;;;;;6158748;23;20314;-77
2024/01/16 12:35:36;;;;;;;22.83;11.35;;;8.00;99.90;;;;;;6184718;23;20123;-76
2024/01/16 12:38:05;;;;;;;13.15;10.35;;;8.00;99.90;;;;;;6182508;23;20007;-76
2024/01/16 12:40:32;;;;;;;17.90;12.32;;;8.00;99.90;;;;;;6184403;23;20001;-76